sensor_id;sensor_type;location;lat;lon;timestamp;P1;durP1;ratioP1;P2;durP2;ratioP2
52614;SDS011;38508;53.158;6.614;2022-10-16T00:01:59;7.55;;;1.80;;
52614;SDS011;38508;53.158;6.614;2022-10-16T00:04:24;7.38;;;2.00;;
52614;SDS011;38508;53.158;6.614;2022-10-16T00:06:50;7.18;;;1.80;;
52614;SDS011;38508;53.158;6.614;2022-10-16T00:09:16;6.82;;;1.80;;
52614;SDS011;38508;53.158;6.614;2022-10-16T00:11:41;7.22;;;1.80;;
52614;SDS011;38508;53.158;6.614;2022-10-16T00:14:08;13.75;;;1.70;;
52614;SDS011;38508;53.158;6.614;2022-10-16T00:16:36;7.28;;;1.52;;
52614;SDS011;38508;53.158;6.614;2022-10-16T00:19:02;9.25;;;1.75;;
52614;SDS011;38508;53.158;6.614;2022-10-16T00:21:29;7.47;;;1.65;;
52614;SDS011;38508;53.158;6.614;2022-10-16T00:24:02;10.73;;;2.10;;
52614;SDS011;38508;53.158;6.614;2022-10-16T00:26:31;8.18;;;2.03;;
52614;SDS011;38508;53.158;6.614;2022-10-16T00:28:58;12.10;;;2.17;;
52614;SDS011;38508;53.158;6.614;2022-10-16T00:31:24;9.57;;;2.60;;
52614;SDS011;38508;53.158;6.614;2022-10-16T00:33:50;8.93;;;2.08;;
52614;SDS011;38508;53.158;6.614;2022-10-16T00:36:20;10.70;;;2.03;;
52614;SDS011;38508;53.158;6.614;2022-10-16T00:38:55;11.27;;;2.00;;
52614;SDS011;38508;53.158;6.614;2022-10-16T00:41:23;9.15;;;1.85;;
52614;SDS011;38508;53.158;6.614;2022-10-16T00:46:21;12.30;;;1.92;;
52614;SDS011;38508;53.158;6.614;2022-10-16T00:48:51;8.27;;;1.70;;
52614;SDS011;38508;53.158;6.614;2022-10-16T00:51:34;10.02;;;1.52;;
52614;SDS011;38508;53.158;6.614;2022-10-16T00:54:01;5.28;;;1.63;;
52614;SDS011;38508;53.158;6.614;2022-10-16T00:56:29;6.68;;;1.85;;
52614;SDS011;38508;53.158;6.614;2022-10-16T00:58:54;8.55;;;1.80;;
52614;SDS011;38508;53.158;6.614;2022-10-16T01:01:20;8.30;;;1.45;;
52614;SDS011;38508;53.158;6.614;2022-10-16T01:03:46;10.77;;;2.25;;
52614;SDS011;38508;53.158;6.614;2022-10-16T01:06:22;12.48;;;2.00;;
52614;SDS011;38508;53.158;6.614;2022-10-16T01:08:58;7.00;;;1.70;;
52614;SDS011;38508;53.158;6.614;2022-10-16T01:11:41;8.38;;;1.35;;
52614;SDS011;38508;53.158;6.614;2022-10-16T01:14:19;5.65;;;1.42;;
52614;SDS011;38508;53.158;6.614;2022-10-16T01:25:36;3.88;;;1.10;;
52614;SDS011;38508;53.158;6.614;2022-10-16T01:28:10;6.53;;;1.42;;
52614;SDS011;38508;53.158;6.614;2022-10-16T01:30:38;7.65;;;1.50;;
52614;SDS011;38508;53.158;6.614;2022-10-16T01:33:14;5.93;;;1.50;;
52614;SDS011;38508;53.158;6.614;2022-10-16T01:35:47;5.13;;;1.50;;
52614;SDS011;38508;53.158;6.614;2022-10-16T01:38:34;5.65;;;1.27;;
52614;SDS011;38508;53.158;6.614;2022-10-16T01:41:09;3.40;;;1.17;;
52614;SDS011;38508;53.158;6.614;2022-10-16T01:43:42;6.53;;;1.45;;
52614;SDS011;38508;53.158;6.614;2022-10-16T01:46:15;8.25;;;1.73;;
52614;SDS011;38508;53.158;6.614;2022-10-16T01:48:43;5.70;;;1.20;;
52614;SDS011;38508;53.158;6.614;2022-10-16T01:51:10;5.75;;;1.70;;
52614;SDS011;38508;53.158;6.614;2022-10-16T01:53:39;6.72;;;1.55;;
52614;SDS011;38508;53.158;6.614;2022-10-16T01:56:10;9.80;;;2.08;;
52614;SDS011;38508;53.158;6.614;2022-10-16T01:58:39;6.57;;;1.50;;
52614;SDS011;38508;53.158;6.614;2022-10-16T02:01:10;8.52;;;1.45;;
52614;SDS011;38508;53.158;6.614;2022-10-16T02:03:38;7.10;;;1.33;;
52614;SDS011;38508;53.158;6.614;2022-10-16T02:06:07;7.93;;;1.80;;
52614;SDS011;38508;53.158;6.614;2022-10-16T02:08:33;7.93;;;1.70;;
52614;SDS011;38508;53.158;6.614;2022-10-16T02:10:59;6.97;;;1.27;;
52614;SDS011;38508;53.158;6.614;2022-10-16T02:16:00;7.25;;;1.65;;
52614;SDS011;38508;53.158;6.614;2022-10-16T02:18:26;7.93;;;1.58;;
52614;SDS011;38508;53.158;6.614;2022-10-16T02:26:13;5.63;;;1.13;;
52614;SDS011;38508;53.158;6.614;2022-10-16T02:28:45;4.35;;;1.10;;
52614;SDS011;38508;53.158;6.614;2022-10-16T02:31:18;7.18;;;1.20;;
52614;SDS011;38508;53.158;6.614;2022-10-16T02:33:51;4.60;;;1.00;;
52614;SDS011;38508;53.158;6.614;2022-10-16T02:36:19;6.47;;;1.30;;
52614;SDS011;38508;53.158;6.614;2022-10-16T02:38:46;4.22;;;1.52;;
52614;SDS011;38508;53.158;6.614;2022-10-16T02:41:12;5.22;;;1.45;;
52614;SDS011;38508;53.158;6.614;2022-10-16T02:43:38;5.97;;;1.10;;
52614;SDS011;38508;53.158;6.614;2022-10-16T02:46:04;3.67;;;1.20;;
52614;SDS011;38508;53.158;6.614;2022-10-16T02:48:30;5.57;;;1.45;;
52614;SDS011;38508;53.158;6.614;2022-10-16T02:50:56;8.38;;;1.50;;
52614;SDS011;38508;53.158;6.614;2022-10-16T02:53:22;2.85;;;1.20;;
52614;SDS011;38508;53.158;6.614;2022-10-16T02:55:47;6.72;;;1.40;;
52614;SDS011;38508;53.158;6.614;2022-10-16T02:58:13;4.93;;;1.27;;
52614;SDS011;38508;53.158;6.614;2022-10-16T03:00:39;4.03;;;1.00;;
52614;SDS011;38508;53.158;6.614;2022-10-16T03:03:05;8.48;;;1.30;;
52614;SDS011;38508;53.158;6.614;2022-10-16T03:05:30;5.72;;;1.30;;
52614;SDS011;38508;53.158;6.614;2022-10-16T03:07:56;8.93;;;1.35;;
52614;SDS011;38508;53.158;6.614;2022-10-16T03:10:25;5.07;;;1.58;;
52614;SDS011;38508;53.158;6.614;2022-10-16T03:12:50;5.22;;;1.30;;
52614;SDS011;38508;53.158;6.614;2022-10-16T03:15:16;5.90;;;1.40;;
52614;SDS011;38508;53.158;6.614;2022-10-16T03:17:41;3.50;;;1.40;;
52614;SDS011;38508;53.158;6.614;2022-10-16T03:20:08;2.45;;;1.20;;
52614;SDS011;38508;53.158;6.614;2022-10-16T03:22:34;10.68;;;1.60;;
52614;SDS011;38508;53.158;6.614;2022-10-16T03:24:59;5.97;;;1.40;;
52614;SDS011;38508;53.158;6.614;2022-10-16T03:27:25;3.40;;;1.15;;
52614;SDS011;38508;53.158;6.614;2022-10-16T03:29:51;6.68;;;1.30;;
52614;SDS011;38508;53.158;6.614;2022-10-16T03:32:17;4.13;;;1.55;;
52614;SDS011;38508;53.158;6.614;2022-10-16T03:34:43;6.30;;;1.45;;
52614;SDS011;38508;53.158;6.614;2022-10-16T03:37:09;4.78;;;1.17;;
52614;SDS011;38508;53.158;6.614;2022-10-16T03:39:34;6.60;;;1.55;;
52614;SDS011;38508;53.158;6.614;2022-10-16T03:42:00;2.95;;;1.40;;
52614;SDS011;38508;53.158;6.614;2022-10-16T03:44:26;4.30;;;1.35;;
52614;SDS011;38508;53.158;6.614;2022-10-16T03:46:51;5.97;;;1.50;;
52614;SDS011;38508;53.158;6.614;2022-10-16T03:49:17;7.15;;;1.67;;
52614;SDS011;38508;53.158;6.614;2022-10-16T03:51:43;6.18;;;1.40;;
52614;SDS011;38508;53.158;6.614;2022-10-16T03:54:09;5.65;;;1.33;;
52614;SDS011;38508;53.158;6.614;2022-10-16T03:56:35;9.00;;;1.77;;
52614;SDS011;38508;53.158;6.614;2022-10-16T03:59:00;3.70;;;1.33;;
52614;SDS011;38508;53.158;6.614;2022-10-16T04:01:26;5.78;;;1.33;;
52614;SDS011;38508;53.158;6.614;2022-10-16T04:03:52;8.45;;;1.70;;
52614;SDS011;38508;53.158;6.614;2022-10-16T04:06:17;4.55;;;1.58;;
52614;SDS011;38508;53.158;6.614;2022-10-16T04:08:43;6.07;;;1.42;;
52614;SDS011;38508;53.158;6.614;2022-10-16T04:11:09;4.45;;;1.30;;
52614;SDS011;38508;53.158;6.614;2022-10-16T04:13:34;6.00;;;1.65;;
52614;SDS011;38508;53.158;6.614;2022-10-16T04:16:00;6.18;;;1.60;;
52614;SDS011;38508;53.158;6.614;2022-10-16T04:18:26;4.32;;;1.55;;
52614;SDS011;38508;53.158;6.614;2022-10-16T04:20:52;5.70;;;1.50;;
52614;SDS011;38508;53.158;6.614;2022-10-16T04:23:19;4.88;;;1.40;;
52614;SDS011;38508;53.158;6.614;2022-10-16T04:25:44;6.97;;;1.65;;
52614;SDS011;38508;53.158;6.614;2022-10-16T04:28:10;4.28;;;1.45;;
52614;SDS011;38508;53.158;6.614;2022-10-16T04:30:37;13.23;;;2.08;;
52614;SDS011;38508;53.158;6.614;2022-10-16T04:33:04;4.78;;;1.70;;
52614;SDS011;38508;53.158;6.614;2022-10-16T04:35:30;5.28;;;1.90;;
52614;SDS011;38508;53.158;6.614;2022-10-16T04:37:57;5.47;;;1.70;;
52614;SDS011;38508;53.158;6.614;2022-10-16T04:40:23;6.95;;;1.75;;
52614;SDS011;38508;53.158;6.614;2022-10-16T04:42:48;3.60;;;1.40;;
52614;SDS011;38508;53.158;6.614;2022-10-16T04:45:14;8.95;;;1.63;;
52614;SDS011;38508;53.158;6.614;2022-10-16T04:47:40;4.38;;;1.67;;
52614;SDS011;38508;53.158;6.614;2022-10-16T04:50:06;5.60;;;1.85;;
52614;SDS011;38508;53.158;6.614;2022-10-16T04:52:32;5.38;;;2.00;;
52614;SDS011;38508;53.158;6.614;2022-10-16T04:54:58;4.50;;;1.73;;
52614;SDS011;38508;53.158;6.614;2022-10-16T04:57:26;4.18;;;1.67;;
52614;SDS011;38508;53.158;6.614;2022-10-16T04:59:52;7.30;;;1.70;;
52614;SDS011;38508;53.158;6.614;2022-10-16T05:02:18;4.30;;;1.63;;
52614;SDS011;38508;53.158;6.614;2022-10-16T05:04:44;7.80;;;1.92;;
52614;SDS011;38508;53.158;6.614;2022-10-16T05:07:10;4.28;;;1.90;;
52614;SDS011;38508;53.158;6.614;2022-10-16T05:09:35;5.43;;;2.10;;
52614;SDS011;38508;53.158;6.614;2022-10-16T05:12:01;8.45;;;2.40;;
52614;SDS011;38508;53.158;6.614;2022-10-16T05:14:28;6.80;;;2.25;;
52614;SDS011;38508;53.158;6.614;2022-10-16T05:16:54;8.02;;;2.47;;
52614;SDS011;38508;53.158;6.614;2022-10-16T05:19:20;5.97;;;2.38;;
52614;SDS011;38508;53.158;6.614;2022-10-16T05:21:45;5.43;;;2.00;;
52614;SDS011;38508;53.158;6.614;2022-10-16T05:24:11;9.68;;;3.17;;
52614;SDS011;38508;53.158;6.614;2022-10-16T05:26:37;6.90;;;2.70;;
52614;SDS011;38508;53.158;6.614;2022-10-16T05:29:03;7.75;;;2.60;;
52614;SDS011;38508;53.158;6.614;2022-10-16T05:31:28;7.95;;;2.60;;
52614;SDS011;38508;53.158;6.614;2022-10-16T05:34:00;4.10;;;2.33;;
52614;SDS011;38508;53.158;6.614;2022-10-16T05:36:26;7.78;;;2.20;;
52614;SDS011;38508;53.158;6.614;2022-10-16T05:38:52;4.15;;;2.35;;
52614;SDS011;38508;53.158;6.614;2022-10-16T05:41:18;4.72;;;2.33;;
52614;SDS011;38508;53.158;6.614;2022-10-16T05:43:48;6.13;;;2.40;;
52614;SDS011;38508;53.158;6.614;2022-10-16T05:46:14;4.05;;;2.33;;
52614;SDS011;38508;53.158;6.614;2022-10-16T05:48:40;10.52;;;2.83;;
52614;SDS011;38508;53.158;6.614;2022-10-16T05:51:07;8.27;;;2.95;;
52614;SDS011;38508;53.158;6.614;2022-10-16T05:53:35;11.48;;;3.30;;
52614;SDS011;38508;53.158;6.614;2022-10-16T05:56:02;5.32;;;2.50;;
52614;SDS011;38508;53.158;6.614;2022-10-16T05:58:30;7.43;;;2.63;;
52614;SDS011;38508;53.158;6.614;2022-10-16T06:03:28;8.52;;;2.80;;
52614;SDS011;38508;53.158;6.614;2022-10-16T06:05:53;4.72;;;2.63;;
52614;SDS011;38508;53.158;6.614;2022-10-16T06:08:19;6.45;;;2.83;;
52614;SDS011;38508;53.158;6.614;2022-10-16T06:10:46;7.10;;;2.83;;
52614;SDS011;38508;53.158;6.614;2022-10-16T06:13:13;6.60;;;2.30;;
52614;SDS011;38508;53.158;6.614;2022-10-16T06:15:39;6.50;;;2.22;;
52614;SDS011;38508;53.158;6.614;2022-10-16T06:18:10;6.22;;;2.20;;
52614;SDS011;38508;53.158;6.614;2022-10-16T06:20:36;8.25;;;2.35;;
52614;SDS011;38508;53.158;6.614;2022-10-16T06:23:02;5.88;;;2.60;;
52614;SDS011;38508;53.158;6.614;2022-10-16T06:25:29;6.65;;;2.70;;
52614;SDS011;38508;53.158;6.614;2022-10-16T06:27:56;7.38;;;2.65;;
52614;SDS011;38508;53.158;6.614;2022-10-16T06:30:22;8.57;;;3.17;;
52614;SDS011;38508;53.158;6.614;2022-10-16T06:32:47;7.60;;;3.00;;
52614;SDS011;38508;53.158;6.614;2022-10-16T06:35:13;6.07;;;2.90;;
52614;SDS011;38508;53.158;6.614;2022-10-16T06:37:38;7.20;;;2.63;;
52614;SDS011;38508;53.158;6.614;2022-10-16T06:40:04;5.25;;;2.63;;
52614;SDS011;38508;53.158;6.614;2022-10-16T06:42:30;5.70;;;2.50;;
52614;SDS011;38508;53.158;6.614;2022-10-16T06:44:56;6.80;;;2.40;;
52614;SDS011;38508;53.158;6.614;2022-10-16T06:47:22;10.02;;;2.60;;
52614;SDS011;38508;53.158;6.614;2022-10-16T06:49:47;8.88;;;2.05;;
52614;SDS011;38508;53.158;6.614;2022-10-16T06:52:13;7.35;;;2.60;;
52614;SDS011;38508;53.158;6.614;2022-10-16T06:54:39;10.38;;;2.80;;
52614;SDS011;38508;53.158;6.614;2022-10-16T06:57:04;6.68;;;2.08;;
52614;SDS011;38508;53.158;6.614;2022-10-16T06:59:30;4.85;;;2.28;;
52614;SDS011;38508;53.158;6.614;2022-10-16T07:01:56;8.40;;;2.60;;
52614;SDS011;38508;53.158;6.614;2022-10-16T07:04:21;6.10;;;2.30;;
52614;SDS011;38508;53.158;6.614;2022-10-16T07:06:47;4.82;;;1.90;;
52614;SDS011;38508;53.158;6.614;2022-10-16T07:09:13;8.40;;;2.20;;
52614;SDS011;38508;53.158;6.614;2022-10-16T07:11:39;6.93;;;2.42;;
52614;SDS011;38508;53.158;6.614;2022-10-16T07:14:08;11.23;;;2.72;;
52614;SDS011;38508;53.158;6.614;2022-10-16T07:16:43;5.72;;;2.05;;
52614;SDS011;38508;53.158;6.614;2022-10-16T07:19:09;5.60;;;2.63;;
52614;SDS011;38508;53.158;6.614;2022-10-16T07:21:37;7.00;;;2.45;;
52614;SDS011;38508;53.158;6.614;2022-10-16T07:24:03;7.40;;;2.50;;
52614;SDS011;38508;53.158;6.614;2022-10-16T07:26:32;7.38;;;2.50;;
52614;SDS011;38508;53.158;6.614;2022-10-16T07:28:59;7.63;;;2.42;;
52614;SDS011;38508;53.158;6.614;2022-10-16T07:31:25;8.90;;;2.42;;
52614;SDS011;38508;53.158;6.614;2022-10-16T07:33:51;6.63;;;1.90;;
52614;SDS011;38508;53.158;6.614;2022-10-16T07:36:18;9.23;;;2.35;;
52614;SDS011;38508;53.158;6.614;2022-10-16T07:38:45;7.88;;;2.10;;
52614;SDS011;38508;53.158;6.614;2022-10-16T07:41:12;6.75;;;2.15;;
52614;SDS011;38508;53.158;6.614;2022-10-16T07:43:40;8.25;;;1.92;;
52614;SDS011;38508;53.158;6.614;2022-10-16T07:46:10;8.32;;;2.70;;
52614;SDS011;38508;53.158;6.614;2022-10-16T07:48:35;8.43;;;3.03;;
52614;SDS011;38508;53.158;6.614;2022-10-16T07:51:02;7.18;;;2.55;;
52614;SDS011;38508;53.158;6.614;2022-10-16T07:53:30;8.20;;;2.50;;
52614;SDS011;38508;53.158;6.614;2022-10-16T07:55:57;10.02;;;2.42;;
52614;SDS011;38508;53.158;6.614;2022-10-16T07:58:29;6.03;;;2.08;;
52614;SDS011;38508;53.158;6.614;2022-10-16T08:00:55;5.55;;;2.33;;
52614;SDS011;38508;53.158;6.614;2022-10-16T08:03:22;7.07;;;2.72;;
52614;SDS011;38508;53.158;6.614;2022-10-16T08:05:48;9.65;;;2.72;;
52614;SDS011;38508;53.158;6.614;2022-10-16T08:08:15;5.65;;;2.15;;
52614;SDS011;38508;53.158;6.614;2022-10-16T08:10:42;6.28;;;2.28;;
52614;SDS011;38508;53.158;6.614;2022-10-16T08:13:07;7.53;;;2.10;;
52614;SDS011;38508;53.158;6.614;2022-10-16T08:15:34;6.25;;;2.08;;
52614;SDS011;38508;53.158;6.614;2022-10-16T08:18:01;5.05;;;1.80;;
52614;SDS011;38508;53.158;6.614;2022-10-16T08:20:29;5.07;;;1.90;;
52614;SDS011;38508;53.158;6.614;2022-10-16T08:22:56;5.82;;;2.00;;
52614;SDS011;38508;53.158;6.614;2022-10-16T08:25:22;3.20;;;1.50;;
52614;SDS011;38508;53.158;6.614;2022-10-16T08:27:48;5.25;;;1.83;;
52614;SDS011;38508;53.158;6.614;2022-10-16T08:30:15;4.10;;;1.60;;
52614;SDS011;38508;53.158;6.614;2022-10-16T08:32:43;8.35;;;1.80;;
52614;SDS011;38508;53.158;6.614;2022-10-16T08:35:09;5.80;;;1.85;;
52614;SDS011;38508;53.158;6.614;2022-10-16T08:37:36;8.23;;;1.42;;
52614;SDS011;38508;53.158;6.614;2022-10-16T08:40:03;8.82;;;1.38;;
52614;SDS011;38508;53.158;6.614;2022-10-16T08:43:16;5.00;;;1.20;;
52614;SDS011;38508;53.158;6.614;2022-10-16T08:50:49;4.95;;;0.98;;
52614;SDS011;38508;53.158;6.614;2022-10-16T08:53:40;11.07;;;1.42;;
52614;SDS011;38508;53.158;6.614;2022-10-16T08:56:11;7.88;;;1.30;;
52614;SDS011;38508;53.158;6.614;2022-10-16T08:58:37;12.38;;;1.08;;
52614;SDS011;38508;53.158;6.614;2022-10-16T09:01:03;3.88;;;1.08;;
52614;SDS011;38508;53.158;6.614;2022-10-16T09:03:49;4.93;;;1.33;;
52614;SDS011;38508;53.158;6.614;2022-10-16T09:15:03;7.00;;;1.10;;
52614;SDS011;38508;53.158;6.614;2022-10-16T09:17:49;9.05;;;1.08;;
52614;SDS011;38508;53.158;6.614;2022-10-16T09:23:13;6.53;;;1.40;;
52614;SDS011;38508;53.158;6.614;2022-10-16T09:25:53;6.25;;;1.48;;
52614;SDS011;38508;53.158;6.614;2022-10-16T09:28:20;9.50;;;1.50;;
52614;SDS011;38508;53.158;6.614;2022-10-16T09:30:46;5.63;;;1.00;;
52614;SDS011;38508;53.158;6.614;2022-10-16T09:33:14;5.85;;;1.35;;
52614;SDS011;38508;53.158;6.614;2022-10-16T09:35:46;5.90;;;1.35;;
52614;SDS011;38508;53.158;6.614;2022-10-16T09:38:24;6.90;;;1.10;;
52614;SDS011;38508;53.158;6.614;2022-10-16T09:40:54;7.72;;;1.20;;
52614;SDS011;38508;53.158;6.614;2022-10-16T09:43:25;10.15;;;1.30;;
52614;SDS011;38508;53.158;6.614;2022-10-16T09:46:28;8.38;;;1.10;;
52614;SDS011;38508;53.158;6.614;2022-10-16T09:48:59;10.23;;;1.45;;
52614;SDS011;38508;53.158;6.614;2022-10-16T09:51:34;9.52;;;1.80;;
52614;SDS011;38508;53.158;6.614;2022-10-16T09:54:11;13.40;;;1.95;;
52614;SDS011;38508;53.158;6.614;2022-10-16T09:56:45;10.63;;;1.55;;
52614;SDS011;38508;53.158;6.614;2022-10-16T09:59:20;16.48;;;1.60;;
52614;SDS011;38508;53.158;6.614;2022-10-16T10:01:55;11.38;;;1.85;;
52614;SDS011;38508;53.158;6.614;2022-10-16T10:04:24;11.77;;;1.67;;
52614;SDS011;38508;53.158;6.614;2022-10-16T10:06:54;11.23;;;1.75;;
52614;SDS011;38508;53.158;6.614;2022-10-16T10:09:27;13.25;;;2.38;;
52614;SDS011;38508;53.158;6.614;2022-10-16T10:12:00;12.85;;;1.67;;
52614;SDS011;38508;53.158;6.614;2022-10-16T10:14:31;9.88;;;1.50;;
52614;SDS011;38508;53.158;6.614;2022-10-16T10:19:47;6.88;;;1.35;;
52614;SDS011;38508;53.158;6.614;2022-10-16T10:33:01;7.72;;;1.38;;
52614;SDS011;38508;53.158;6.614;2022-10-16T10:35:42;9.55;;;1.45;;
52614;SDS011;38508;53.158;6.614;2022-10-16T10:40:50;13.15;;;1.95;;
52614;SDS011;38508;53.158;6.614;2022-10-16T10:45:53;8.63;;;1.45;;
52614;SDS011;38508;53.158;6.614;2022-10-16T10:48:40;12.02;;;1.42;;
52614;SDS011;38508;53.158;6.614;2022-10-16T11:01:59;9.98;;;1.88;;
52614;SDS011;38508;53.158;6.614;2022-10-16T11:07:07;16.88;;;1.95;;
52614;SDS011;38508;53.158;6.614;2022-10-16T11:09:51;12.32;;;1.42;;
52614;SDS011;38508;53.158;6.614;2022-10-16T11:12:24;14.65;;;1.92;;
52614;SDS011;38508;53.158;6.614;2022-10-16T11:14:56;14.65;;;2.28;;
52614;SDS011;38508;53.158;6.614;2022-10-16T11:17:39;12.40;;;1.65;;
52614;SDS011;38508;53.158;6.614;2022-10-16T11:20:16;14.57;;;2.13;;
52614;SDS011;38508;53.158;6.614;2022-10-16T11:25:41;12.52;;;1.50;;
52614;SDS011;38508;53.158;6.614;2022-10-16T11:30:47;10.40;;;1.45;;
52614;SDS011;38508;53.158;6.614;2022-10-16T11:33:25;9.52;;;1.45;;
52614;SDS011;38508;53.158;6.614;2022-10-16T11:38:27;12.57;;;1.70;;
52614;SDS011;38508;53.158;6.614;2022-10-16T11:41:23;17.00;;;1.48;;
52614;SDS011;38508;53.158;6.614;2022-10-16T11:43:58;17.23;;;2.63;;
52614;SDS011;38508;53.158;6.614;2022-10-16T11:46:40;16.20;;;1.83;;
52614;SDS011;38508;53.158;6.614;2022-10-16T11:49:14;16.67;;;2.03;;
52614;SDS011;38508;53.158;6.614;2022-10-16T11:51:45;21.70;;;2.25;;
52614;SDS011;38508;53.158;6.614;2022-10-16T11:57:08;11.13;;;1.83;;
52614;SDS011;38508;53.158;6.614;2022-10-16T12:00:18;13.60;;;1.40;;
52614;SDS011;38508;53.158;6.614;2022-10-16T12:08:26;19.63;;;2.65;;
52614;SDS011;38508;53.158;6.614;2022-10-16T12:10:52;14.18;;;1.48;;
52614;SDS011;38508;53.158;6.614;2022-10-16T12:13:30;15.77;;;1.83;;
52614;SDS011;38508;53.158;6.614;2022-10-16T12:18:47;8.93;;;1.33;;
52614;SDS011;38508;53.158;6.614;2022-10-16T12:21:14;19.45;;;1.88;;
52614;SDS011;38508;53.158;6.614;2022-10-16T12:26:38;11.38;;;1.80;;
52614;SDS011;38508;53.158;6.614;2022-10-16T12:29:12;16.13;;;2.42;;
52614;SDS011;38508;53.158;6.614;2022-10-16T12:31:45;14.35;;;1.80;;
52614;SDS011;38508;53.158;6.614;2022-10-16T12:34:24;14.73;;;1.60;;
52614;SDS011;38508;53.158;6.614;2022-10-16T12:37:10;11.98;;;1.60;;
52614;SDS011;38508;53.158;6.614;2022-10-16T12:39:48;13.93;;;1.60;;
52614;SDS011;38508;53.158;6.614;2022-10-16T12:42:19;12.20;;;1.75;;
52614;SDS011;38508;53.158;6.614;2022-10-16T12:44:55;13.25;;;1.67;;
52614;SDS011;38508;53.158;6.614;2022-10-16T12:47:35;9.38;;;1.10;;
52614;SDS011;38508;53.158;6.614;2022-10-16T12:50:03;10.63;;;1.48;;
52614;SDS011;38508;53.158;6.614;2022-10-16T12:52:48;11.68;;;2.10;;
52614;SDS011;38508;53.158;6.614;2022-10-16T12:55:17;14.60;;;1.67;;
52614;SDS011;38508;53.158;6.614;2022-10-16T13:06:29;11.13;;;1.83;;
52614;SDS011;38508;53.158;6.614;2022-10-16T13:09:05;14.50;;;2.35;;
52614;SDS011;38508;53.158;6.614;2022-10-16T13:17:34;13.63;;;1.27;;
52614;SDS011;38508;53.158;6.614;2022-10-16T13:22:52;9.63;;;1.60;;
52614;SDS011;38508;53.158;6.614;2022-10-16T13:28:10;13.40;;;1.50;;
52614;SDS011;38508;53.158;6.614;2022-10-16T13:30:39;14.23;;;2.08;;
52614;SDS011;38508;53.158;6.614;2022-10-16T13:33:26;10.18;;;1.40;;
52614;SDS011;38508;53.158;6.614;2022-10-16T13:35:58;13.38;;;1.60;;
52614;SDS011;38508;53.158;6.614;2022-10-16T13:38:25;11.13;;;1.58;;
52614;SDS011;38508;53.158;6.614;2022-10-16T13:41:01;12.63;;;1.50;;
52614;SDS011;38508;53.158;6.614;2022-10-16T13:46:06;11.98;;;1.98;;
52614;SDS011;38508;53.158;6.614;2022-10-16T13:48:37;13.57;;;1.92;;
52614;SDS011;38508;53.158;6.614;2022-10-16T13:51:10;11.77;;;1.77;;
52614;SDS011;38508;53.158;6.614;2022-10-16T13:53:38;12.15;;;1.45;;
52614;SDS011;38508;53.158;6.614;2022-10-16T13:56:06;12.35;;;1.70;;
52614;SDS011;38508;53.158;6.614;2022-10-16T13:58:35;14.10;;;2.10;;
52614;SDS011;38508;53.158;6.614;2022-10-16T14:01:02;19.77;;;2.05;;
52614;SDS011;38508;53.158;6.614;2022-10-16T14:03:30;8.50;;;1.38;;
52614;SDS011;38508;53.158;6.614;2022-10-16T14:05:58;11.82;;;1.63;;
52614;SDS011;38508;53.158;6.614;2022-10-16T14:08:26;13.85;;;2.13;;
52614;SDS011;38508;53.158;6.614;2022-10-16T14:10:54;14.68;;;1.92;;
52614;SDS011;38508;53.158;6.614;2022-10-16T14:13:43;16.15;;;2.28;;
52614;SDS011;38508;53.158;6.614;2022-10-16T14:16:11;16.20;;;2.05;;
52614;SDS011;38508;53.158;6.614;2022-10-16T14:18:44;14.00;;;1.88;;
52614;SDS011;38508;53.158;6.614;2022-10-16T14:21:15;12.55;;;1.75;;
52614;SDS011;38508;53.158;6.614;2022-10-16T14:23:42;12.50;;;1.50;;
52614;SDS011;38508;53.158;6.614;2022-10-16T14:28:35;9.32;;;1.58;;
52614;SDS011;38508;53.158;6.614;2022-10-16T14:31:03;11.52;;;1.63;;
52614;SDS011;38508;53.158;6.614;2022-10-16T14:33:52;17.10;;;1.77;;
52614;SDS011;38508;53.158;6.614;2022-10-16T14:36:19;12.18;;;1.50;;
52614;SDS011;38508;53.158;6.614;2022-10-16T14:38:51;10.90;;;1.27;;
52614;SDS011;38508;53.158;6.614;2022-10-16T14:41:20;13.00;;;2.05;;
52614;SDS011;38508;53.158;6.614;2022-10-16T14:43:50;9.80;;;1.25;;
52614;SDS011;38508;53.158;6.614;2022-10-16T14:46:20;11.52;;;1.92;;
52614;SDS011;38508;53.158;6.614;2022-10-16T14:48:51;10.50;;;1.42;;
52614;SDS011;38508;53.158;6.614;2022-10-16T14:51:24;9.02;;;1.20;;
52614;SDS011;38508;53.158;6.614;2022-10-16T14:53:51;15.05;;;1.77;;
52614;SDS011;38508;53.158;6.614;2022-10-16T14:56:18;7.65;;;1.35;;
52614;SDS011;38508;53.158;6.614;2022-10-16T14:58:46;13.10;;;1.45;;
52614;SDS011;38508;53.158;6.614;2022-10-16T15:01:12;15.48;;;1.45;;
52614;SDS011;38508;53.158;6.614;2022-10-16T15:03:38;10.07;;;1.50;;
52614;SDS011;38508;53.158;6.614;2022-10-16T15:06:08;8.98;;;1.60;;
52614;SDS011;38508;53.158;6.614;2022-10-16T15:08:38;5.70;;;1.00;;
52614;SDS011;38508;53.158;6.614;2022-10-16T15:11:04;10.27;;;1.50;;
52614;SDS011;38508;53.158;6.614;2022-10-16T15:13:34;9.95;;;1.35;;
52614;SDS011;38508;53.158;6.614;2022-10-16T15:16:00;10.82;;;1.30;;
52614;SDS011;38508;53.158;6.614;2022-10-16T15:18:26;12.82;;;1.50;;
52614;SDS011;38508;53.158;6.614;2022-10-16T15:20:52;9.43;;;0.98;;
52614;SDS011;38508;53.158;6.614;2022-10-16T15:23:18;9.20;;;1.20;;
52614;SDS011;38508;53.158;6.614;2022-10-16T15:25:47;11.98;;;1.50;;
52614;SDS011;38508;53.158;6.614;2022-10-16T15:28:13;6.57;;;1.23;;
52614;SDS011;38508;53.158;6.614;2022-10-16T15:30:39;10.73;;;1.48;;
52614;SDS011;38508;53.158;6.614;2022-10-16T15:33:10;12.25;;;1.50;;
52614;SDS011;38508;53.158;6.614;2022-10-16T15:35:39;13.30;;;1.40;;
52614;SDS011;38508;53.158;6.614;2022-10-16T15:38:04;9.40;;;1.90;;
52614;SDS011;38508;53.158;6.614;2022-10-16T15:40:31;12.00;;;1.40;;
52614;SDS011;38508;53.158;6.614;2022-10-16T15:42:56;12.48;;;1.40;;
52614;SDS011;38508;53.158;6.614;2022-10-16T15:45:22;8.90;;;1.50;;
52614;SDS011;38508;53.158;6.614;2022-10-16T15:47:48;8.18;;;1.33;;
52614;SDS011;38508;53.158;6.614;2022-10-16T15:50:15;10.25;;;1.38;;
52614;SDS011;38508;53.158;6.614;2022-10-16T15:52:41;9.48;;;1.30;;
52614;SDS011;38508;53.158;6.614;2022-10-16T15:55:08;9.50;;;1.73;;
52614;SDS011;38508;53.158;6.614;2022-10-16T15:57:35;9.75;;;1.10;;
52614;SDS011;38508;53.158;6.614;2022-10-16T16:00:04;11.23;;;1.52;;
52614;SDS011;38508;53.158;6.614;2022-10-16T16:02:34;8.30;;;1.27;;
52614;SDS011;38508;53.158;6.614;2022-10-16T16:05:00;14.75;;;2.03;;
52614;SDS011;38508;53.158;6.614;2022-10-16T16:07:26;11.13;;;1.35;;
52614;SDS011;38508;53.158;6.614;2022-10-16T16:09:52;8.40;;;1.27;;
52614;SDS011;38508;53.158;6.614;2022-10-16T16:12:18;10.05;;;1.15;;
52614;SDS011;38508;53.158;6.614;2022-10-16T16:14:44;13.25;;;1.65;;
52614;SDS011;38508;53.158;6.614;2022-10-16T16:17:11;9.15;;;1.10;;
52614;SDS011;38508;53.158;6.614;2022-10-16T16:19:37;8.30;;;1.10;;
52614;SDS011;38508;53.158;6.614;2022-10-16T16:22:02;14.50;;;2.03;;
52614;SDS011;38508;53.158;6.614;2022-10-16T16:24:28;9.40;;;1.73;;
52614;SDS011;38508;53.158;6.614;2022-10-16T16:26:54;12.40;;;1.50;;
52614;SDS011;38508;53.158;6.614;2022-10-16T16:29:20;13.40;;;1.40;;
52614;SDS011;38508;53.158;6.614;2022-10-16T16:31:45;12.88;;;1.50;;
52614;SDS011;38508;53.158;6.614;2022-10-16T16:34:12;12.45;;;1.50;;
52614;SDS011;38508;53.158;6.614;2022-10-16T16:36:38;12.15;;;2.10;;
52614;SDS011;38508;53.158;6.614;2022-10-16T16:39:05;10.02;;;1.60;;
52614;SDS011;38508;53.158;6.614;2022-10-16T16:41:34;9.02;;;1.30;;
52614;SDS011;38508;53.158;6.614;2022-10-16T16:44:04;11.82;;;1.45;;
52614;SDS011;38508;53.158;6.614;2022-10-16T16:46:32;9.43;;;1.63;;
52614;SDS011;38508;53.158;6.614;2022-10-16T16:48:59;13.50;;;1.40;;
52614;SDS011;38508;53.158;6.614;2022-10-16T16:51:25;8.43;;;1.02;;
52614;SDS011;38508;53.158;6.614;2022-10-16T16:53:51;10.40;;;1.30;;